sensor_id;sensor_type;location;lat;lon;timestamp;temperature;humidity
65637;DHT22;52327;42.622;23.316;2024-02-28T00:00:41;8.13;70.67
65637;DHT22;52327;42.622;23.316;2024-02-28T00:03:12;8.07;71.20
65637;DHT22;52327;42.622;23.316;2024-02-28T00:05:39;8.12;70.75
65637;DHT22;52327;42.622;23.316;2024-02-28T00:08:07;8.14;71.17
65637;DHT22;52327;42.622;23.316;2024-02-28T00:10:33;8.12;70.65
65637;DHT22;52327;42.622;23.316;2024-02-28T00:13:01;8.02;69.99
65637;DHT22;52327;42.622;23.316;2024-02-28T00:15:29;7.95;69.84
65637;DHT22;52327;42.622;23.316;2024-02-28T00:17:55;7.81;70.44
65637;DHT22;52327;42.622;23.316;2024-02-28T00:20:20;7.78;71.09
65637;DHT22;52327;42.622;23.316;2024-02-28T00:22:46;7.78;71.76
65637;DHT22;52327;42.622;23.316;2024-02-28T00:25:12;7.76;72.38
65637;DHT22;52327;42.622;23.316;2024-02-28T00:27:39;7.78;72.87
65637;DHT22;52327;42.622;23.316;2024-02-28T00:30:05;7.74;72.14
65637;DHT22;52327;42.622;23.316;2024-02-28T00:32:33;7.76;71.82
65637;DHT22;52327;42.622;23.316;2024-02-28T00:35:01;7.76;71.22
65637;DHT22;52327;42.622;23.316;2024-02-28T00:37:28;7.97;69.77
65637;DHT22;52327;42.622;23.316;2024-02-28T00:39:53;7.93;70.21
65637;DHT22;52327;42.622;23.316;2024-02-28T00:42:21;7.88;71.28
65637;DHT22;52327;42.622;23.316;2024-02-28T00:44:49;7.99;70.33
65637;DHT22;52327;42.622;23.316;2024-02-28T00:47:15;7.90;71.42
65637;DHT22;52327;42.622;23.316;2024-02-28T00:49:40;7.79;72.20
65637;DHT22;52327;42.622;23.316;2024-02-28T00:52:06;7.69;72.34
65637;DHT22;52327;42.622;23.316;2024-02-28T00:54:35;7.64;72.21
65637;DHT22;52327;42.622;23.316;2024-02-28T00:57:03;7.54;72.51
65637;DHT22;52327;42.622;23.316;2024-02-28T00:59:28;7.55;72.60
65637;DHT22;52327;42.622;23.316;2024-02-28T01:01:56;7.51;72.98
65637;DHT22;52327;42.622;23.316;2024-02-28T01:04:22;7.62;71.62
65637;DHT22;52327;42.622;23.316;2024-02-28T01:06:50;7.68;71.59
65637;DHT22;52327;42.622;23.316;2024-02-28T01:09:16;7.61;72.13
65637;DHT22;52327;42.622;23.316;2024-02-28T01:11:44;7.62;72.69
65637;DHT22;52327;42.622;23.316;2024-02-28T01:14:17;7.59;72.82
65637;DHT22;52327;42.622;23.316;2024-02-28T01:16:42;7.61;73.33
65637;DHT22;52327;42.622;23.316;2024-02-28T01:19:08;7.62;72.60
65637;DHT22;52327;42.622;23.316;2024-02-28T01:21:33;7.59;72.49
65637;DHT22;52327;42.622;23.316;2024-02-28T01:24:02;7.58;72.43
65637;DHT22;52327;42.622;23.316;2024-02-28T01:26:27;7.55;72.33
65637;DHT22;52327;42.622;23.316;2024-02-28T01:28:55;7.68;71.46
65637;DHT22;52327;42.622;23.316;2024-02-28T01:31:21;7.65;72.02
65637;DHT22;52327;42.622;23.316;2024-02-28T01:33:46;7.61;72.91
65637;DHT22;52327;42.622;23.316;2024-02-28T01:36:17;7.68;71.29
65637;DHT22;52327;42.622;23.316;2024-02-28T01:38:43;7.66;71.51
65637;DHT22;52327;42.622;23.316;2024-02-28T01:41:08;7.56;72.22
65637;DHT22;52327;42.622;23.316;2024-02-28T01:43:34;7.48;72.06
65637;DHT22;52327;42.622;23.316;2024-02-28T01:46:04;7.55;72.04
65637;DHT22;52327;42.622;23.316;2024-02-28T01:48:31;7.51;72.72
65637;DHT22;52327;42.622;23.316;2024-02-28T01:50:57;7.48;72.80
65637;DHT22;52327;42.622;23.316;2024-02-28T01:53:22;7.45;73.29
65637;DHT22;52327;42.622;23.316;2024-02-28T01:55:48;7.52;72.71
65637;DHT22;52327;42.622;23.316;2024-02-28T01:58:13;7.35;72.84
65637;DHT22;52327;42.622;23.316;2024-02-28T02:00:39;7.28;73.47
65637;DHT22;52327;42.622;23.316;2024-02-28T02:03:05;7.23;73.59
65637;DHT22;52327;42.622;23.316;2024-02-28T02:05:30;7.18;73.28
65637;DHT22;52327;42.622;23.316;2024-02-28T02:07:59;7.17;73.41
65637;DHT22;52327;42.622;23.316;2024-02-28T02:10:26;7.20;73.53
65637;DHT22;52327;42.622;23.316;2024-02-28T02:12:51;7.27;73.39
65637;DHT22;52327;42.622;23.316;2024-02-28T02:15:17;7.30;73.21
65637;DHT22;52327;42.622;23.316;2024-02-28T02:17:45;7.31;73.12
65637;DHT22;52327;42.622;23.316;2024-02-28T02:20:11;7.52;71.73
65637;DHT22;52327;42.622;23.316;2024-02-28T02:22:39;7.48;72.39
65637;DHT22;52327;42.622;23.316;2024-02-28T02:25:07;7.40;72.64
65637;DHT22;52327;42.622;23.316;2024-02-28T02:27:32;7.28;72.79
65637;DHT22;52327;42.622;23.316;2024-02-28T02:29:58;7.27;73.20
65637;DHT22;52327;42.622;23.316;2024-02-28T02:32:23;7.34;73.27
65637;DHT22;52327;42.622;23.316;2024-02-28T02:34:49;7.38;72.81
65637;DHT22;52327;42.622;23.316;2024-02-28T02:37:19;7.43;72.29
65637;DHT22;52327;42.622;23.316;2024-02-28T02:39:44;7.40;72.17
65637;DHT22;52327;42.622;23.316;2024-02-28T02:42:12;7.38;72.20
65637;DHT22;52327;42.622;23.316;2024-02-28T02:44:42;7.43;72.11
65637;DHT22;52327;42.622;23.316;2024-02-28T02:47:08;7.50;72.48
65637;DHT22;52327;42.622;23.316;2024-02-28T02:49:33;7.48;71.68
65637;DHT22;52327;42.622;23.316;2024-02-28T02:51:59;7.44;71.97
65637;DHT22;52327;42.622;23.316;2024-02-28T02:54:24;7.35;72.20
65637;DHT22;52327;42.622;23.316;2024-02-28T02:56:50;7.27;72.16
65637;DHT22;52327;42.622;23.316;2024-02-28T02:59:15;7.21;72.50
65637;DHT22;52327;42.622;23.316;2024-02-28T03:01:41;7.15;73.31
65637;DHT22;52327;42.622;23.316;2024-02-28T03:04:06;7.20;73.50
65637;DHT22;52327;42.622;23.316;2024-02-28T03:06:34;7.20;73.37
65637;DHT22;52327;42.622;23.316;2024-02-28T03:09:00;7.18;73.60
65637;DHT22;52327;42.622;23.316;2024-02-28T03:11:25;7.13;73.36
65637;DHT22;52327;42.622;23.316;2024-02-28T03:13:51;7.18;72.92
65637;DHT22;52327;42.622;23.316;2024-02-28T03:16:16;7.18;72.92
65637;DHT22;52327;42.622;23.316;2024-02-28T03:18:42;7.08;73.13
65637;DHT22;52327;42.622;23.316;2024-02-28T03:21:07;7.00;74.07
65637;DHT22;52327;42.622;23.316;2024-02-28T03:23:33;7.14;72.81
65637;DHT22;52327;42.622;23.316;2024-02-28T03:26:07;7.08;74.30
65637;DHT22;52327;42.622;23.316;2024-02-28T03:28:33;7.11;74.06
65637;DHT22;52327;42.622;23.316;2024-02-28T03:30:58;7.10;74.44
65637;DHT22;52327;42.622;23.316;2024-02-28T03:33:24;7.08;74.35
65637;DHT22;52327;42.622;23.316;2024-02-28T03:35:50;7.05;73.88
65637;DHT22;52327;42.622;23.316;2024-02-28T03:38:18;7.08;73.93
65637;DHT22;52327;42.622;23.316;2024-02-28T03:40:43;7.07;74.25
65637;DHT22;52327;42.622;23.316;2024-02-28T03:43:09;7.05;74.74
65637;DHT22;52327;42.622;23.316;2024-02-28T03:45:37;7.08;74.68
65637;DHT22;52327;42.622;23.316;2024-02-28T03:48:05;7.15;73.66
65637;DHT22;52327;42.622;23.316;2024-02-28T03:50:31;7.08;74.60
65637;DHT22;52327;42.622;23.316;2024-02-28T03:52:56;7.08;75.05
65637;DHT22;52327;42.622;23.316;2024-02-28T03:55:27;7.20;73.62
65637;DHT22;52327;42.622;23.316;2024-02-28T03:57:56;7.08;74.29
65637;DHT22;52327;42.622;23.316;2024-02-28T04:00:21;7.03;74.61
65637;DHT22;52327;42.622;23.316;2024-02-28T04:02:47;7.01;74.18
65637;DHT22;52327;42.622;23.316;2024-02-28T04:05:13;7.08;73.67
65637;DHT22;52327;42.622;23.316;2024-02-28T04:07:38;7.01;73.94
65637;DHT22;52327;42.622;23.316;2024-02-28T04:10:04;6.87;74.06
65637;DHT22;52327;42.622;23.316;2024-02-28T04:12:31;6.80;74.70
65637;DHT22;52327;42.622;23.316;2024-02-28T04:14:59;6.77;75.57
65637;DHT22;52327;42.622;23.316;2024-02-28T04:17:24;6.76;74.87
65637;DHT22;52327;42.622;23.316;2024-02-28T04:19:52;6.80;74.89
65637;DHT22;52327;42.622;23.316;2024-02-28T04:22:18;6.86;74.37
65637;DHT22;52327;42.622;23.316;2024-02-28T04:24:43;6.89;74.74
65637;DHT22;52327;42.622;23.316;2024-02-28T04:27:09;6.84;74.97
65637;DHT22;52327;42.622;23.316;2024-02-28T04:29:37;6.92;74.68
65637;DHT22;52327;42.622;23.316;2024-02-28T04:32:02;6.89;75.48
65637;DHT22;52327;42.622;23.316;2024-02-28T04:34:33;6.92;75.02
65637;DHT22;52327;42.622;23.316;2024-02-28T04:36:58;6.93;74.58
65637;DHT22;52327;42.622;23.316;2024-02-28T04:39:24;6.90;75.21
65637;DHT22;52327;42.622;23.316;2024-02-28T04:41:49;6.86;74.73
65637;DHT22;52327;42.622;23.316;2024-02-28T04:44:15;6.94;74.60
65637;DHT22;52327;42.622;23.316;2024-02-28T04:46:40;6.89;74.86
65637;DHT22;52327;42.622;23.316;2024-02-28T04:49:06;6.87;74.86
65637;DHT22;52327;42.622;23.316;2024-02-28T04:51:31;6.84;75.36
65637;DHT22;52327;42.622;23.316;2024-02-28T04:53:57;6.94;75.59
65637;DHT22;52327;42.622;23.316;2024-02-28T04:56:22;6.97;75.35
65637;DHT22;52327;42.622;23.316;2024-02-28T04:58:49;6.99;74.57
65637;DHT22;52327;42.622;23.316;2024-02-28T05:01:19;6.96;75.28
65637;DHT22;52327;42.622;23.316;2024-02-28T05:03:44;6.97;75.02
65637;DHT22;52327;42.622;23.316;2024-02-28T05:06:12;6.92;75.79
65637;DHT22;52327;42.622;23.316;2024-02-28T05:08:38;6.92;75.19
65637;DHT22;52327;42.622;23.316;2024-02-28T05:11:03;6.93;75.14
65637;DHT22;52327;42.622;23.316;2024-02-28T05:13:29;7.00;73.92
65637;DHT22;52327;42.622;23.316;2024-02-28T05:15:54;6.97;74.66
65637;DHT22;52327;42.622;23.316;2024-02-28T05:18:20;7.05;73.71
65637;DHT22;52327;42.622;23.316;2024-02-28T05:20:45;6.99;74.72
65637;DHT22;52327;42.622;23.316;2024-02-28T05:23:11;6.93;74.84
65637;DHT22;52327;42.622;23.316;2024-02-28T05:25:37;6.90;74.82
65637;DHT22;52327;42.622;23.316;2024-02-28T05:28:03;7.01;73.95
65637;DHT22;52327;42.622;23.316;2024-02-28T05:30:28;6.94;74.89
65637;DHT22;52327;42.622;23.316;2024-02-28T05:32:54;6.82;75.44
65637;DHT22;52327;42.622;23.316;2024-02-28T05:35:22;6.83;75.90
65637;DHT22;52327;42.622;23.316;2024-02-28T05:37:48;6.79;75.37
65637;DHT22;52327;42.622;23.316;2024-02-28T05:40:19;6.89;75.70
65637;DHT22;52327;42.622;23.316;2024-02-28T05:42:44;6.94;75.78
65637;DHT22;52327;42.622;23.316;2024-02-28T05:45:10;7.13;75.09
65637;DHT22;52327;42.622;23.316;2024-02-28T05:47:38;7.10;75.67
65637;DHT22;52327;42.622;23.316;2024-02-28T05:50:04;7.13;76.02
65637;DHT22;52327;42.622;23.316;2024-02-28T05:52:33;7.17;75.64
65637;DHT22;52327;42.622;23.316;2024-02-28T05:54:58;7.15;75.50
65637;DHT22;52327;42.622;23.316;2024-02-28T05:57:24;7.20;76.04
65637;DHT22;52327;42.622;23.316;2024-02-28T05:59:49;7.25;76.12
65637;DHT22;52327;42.622;23.316;2024-02-28T06:02:18;7.27;75.28
65637;DHT22;52327;42.622;23.316;2024-02-28T06:04:43;7.03;74.91
65637;DHT22;52327;42.622;23.316;2024-02-28T06:07:08;6.92;75.85
65637;DHT22;52327;42.622;23.316;2024-02-28T06:09:34;6.94;76.40
65637;DHT22;52327;42.622;23.316;2024-02-28T06:11:59;6.97;76.70
65637;DHT22;52327;42.622;23.316;2024-02-28T06:14:27;7.24;76.55
65637;DHT22;52327;42.622;23.316;2024-02-28T06:16:52;7.45;76.21
65637;DHT22;52327;42.622;23.316;2024-02-28T06:19:18;7.61;76.16
65637;DHT22;52327;42.622;23.316;2024-02-28T06:21:43;7.71;75.57
65637;DHT22;52327;42.622;23.316;2024-02-28T06:24:10;7.85;75.57
65637;DHT22;52327;42.622;23.316;2024-02-28T06:26:35;7.96;74.81
65637;DHT22;52327;42.622;23.316;2024-02-28T06:29:01;8.05;74.29
65637;DHT22;52327;42.622;23.316;2024-02-28T06:31:29;8.16;74.95
65637;DHT22;52327;42.622;23.316;2024-02-28T06:33:59;8.27;74.63
65637;DHT22;52327;42.622;23.316;2024-02-28T06:36:24;8.34;73.41
65637;DHT22;52327;42.622;23.316;2024-02-28T06:38:50;8.44;74.00
65637;DHT22;52327;42.622;23.316;2024-02-28T06:41:16;8.60;73.93
65637;DHT22;52327;42.622;23.316;2024-02-28T06:43:41;8.71;73.80
65637;DHT22;52327;42.622;23.316;2024-02-28T06:46:07;8.78;73.60
65637;DHT22;52327;42.622;23.316;2024-02-28T06:48:32;8.93;72.86
65637;DHT22;52327;42.622;23.316;2024-02-28T06:50:58;9.14;71.35
65637;DHT22;52327;42.622;23.316;2024-02-28T06:53:23;9.14;72.40
65637;DHT22;52327;42.622;23.316;2024-02-28T06:55:49;9.16;72.60
65637;DHT22;52327;42.622;23.316;2024-02-28T06:58:14;9.23;72.77
65637;DHT22;52327;42.622;23.316;2024-02-28T07:00:40;9.22;72.29
65637;DHT22;52327;42.622;23.316;2024-02-28T07:03:06;9.20;72.28
65637;DHT22;52327;42.622;23.316;2024-02-28T07:05:32;9.18;72.40
65637;DHT22;52327;42.622;23.316;2024-02-28T07:07:59;9.07;72.28
65637;DHT22;52327;42.622;23.316;2024-02-28T07:10:24;9.19;72.50
65637;DHT22;52327;42.622;23.316;2024-02-28T07:12:50;9.32;72.28
65637;DHT22;52327;42.622;23.316;2024-02-28T07:15:15;9.32;72.52
65637;DHT22;52327;42.622;23.316;2024-02-28T07:17:44;9.33;72.32
65637;DHT22;52327;42.622;23.316;2024-02-28T07:20:10;9.28;72.48
65637;DHT22;52327;42.622;23.316;2024-02-28T07:22:35;9.43;72.42
65637;DHT22;52327;42.622;23.316;2024-02-28T07:25:01;9.49;72.45
65637;DHT22;52327;42.622;23.316;2024-02-28T07:27:26;9.46;72.32
65637;DHT22;52327;42.622;23.316;2024-02-28T07:29:52;9.49;72.37
65637;DHT22;52327;42.622;23.316;2024-02-28T07:32:17;9.50;72.15
65637;DHT22;52327;42.622;23.316;2024-02-28T07:34:42;9.61;72.01
65637;DHT22;52327;42.622;23.316;2024-02-28T07:37:08;9.70;71.75
65637;DHT22;52327;42.622;23.316;2024-02-28T07:39:33;9.80;70.87
65637;DHT22;52327;42.622;23.316;2024-02-28T07:42:08;9.71;70.52
65637;DHT22;52327;42.622;23.316;2024-02-28T07:44:33;9.71;70.68
65637;DHT22;52327;42.622;23.316;2024-02-28T07:46:59;9.80;70.13
65637;DHT22;52327;42.622;23.316;2024-02-28T07:49:24;10.05;70.15
65637;DHT22;52327;42.622;23.316;2024-02-28T07:51:50;10.08;70.05
65637;DHT22;52327;42.622;23.316;2024-02-28T07:54:16;10.24;68.84
65637;DHT22;52327;42.622;23.316;2024-02-28T07:56:41;10.30;69.02
65637;DHT22;52327;42.622;23.316;2024-02-28T07:59:06;10.52;68.67
65637;DHT22;52327;42.622;23.316;2024-02-28T08:01:32;10.65;68.17
65637;DHT22;52327;42.622;23.316;2024-02-28T08:03:58;10.68;67.16
65637;DHT22;52327;42.622;23.316;2024-02-28T08:06:24;10.86;67.89
65637;DHT22;52327;42.622;23.316;2024-02-28T08:08:50;11.04;67.18
65637;DHT22;52327;42.622;23.316;2024-02-28T08:11:15;11.26;67.26
65637;DHT22;52327;42.622;23.316;2024-02-28T08:13:41;11.28;66.34
65637;DHT22;52327;42.622;23.316;2024-02-28T08:16:07;11.47;67.23
65637;DHT22;52327;42.622;23.316;2024-02-28T08:18:34;11.67;66.51
65637;DHT22;52327;42.622;23.316;2024-02-28T08:21:00;11.92;65.80
65637;DHT22;52327;42.622;23.316;2024-02-28T08:23:27;11.81;64.59
65637;DHT22;52327;42.622;23.316;2024-02-28T08:25:52;11.68;64.19
65637;DHT22;52327;42.622;23.316;2024-02-28T08:28:18;11.89;63.93
65637;DHT22;52327;42.622;23.316;2024-02-28T08:30:43;11.89;63.90
65637;DHT22;52327;42.622;23.316;2024-02-28T08:33:09;11.79;64.19
65637;DHT22;52327;42.622;23.316;2024-02-28T08:35:35;11.70;65.06
65637;DHT22;52327;42.622;23.316;2024-02-28T08:38:01;11.88;65.24
65637;DHT22;52327;42.622;23.316;2024-02-28T08:40:28;11.84;64.30
65637;DHT22;52327;42.622;23.316;2024-02-28T08:42:54;11.92;64.99
65637;DHT22;52327;42.622;23.316;2024-02-28T08:45:19;12.11;64.92
65637;DHT22;52327;42.622;23.316;2024-02-28T08:47:45;12.30;64.16
65637;DHT22;52327;42.622;23.316;2024-02-28T08:50:11;12.24;63.56
65637;DHT22;52327;42.622;23.316;2024-02-28T08:52:36;12.15;64.19
65637;DHT22;52327;42.622;23.316;2024-02-28T08:55:02;12.15;63.71
65637;DHT22;52327;42.622;23.316;2024-02-28T08:57:28;12.26;64.20
65637;DHT22;52327;42.622;23.316;2024-02-28T08:59:55;12.49;63.69
65637;DHT22;52327;42.622;23.316;2024-02-28T09:02:21;12.53;63.37
65637;DHT22;52327;42.622;23.316;2024-02-28T09:04:47;12.61;63.21
65637;DHT22;52327;42.622;23.316;2024-02-28T09:07:17;12.79;63.08
65637;DHT22;52327;42.622;23.316;2024-02-28T09:09:45;12.80;62.71
65637;DHT22;52327;42.622;23.316;2024-02-28T09:12:10;12.84;61.56
65637;DHT22;52327;42.622;23.316;2024-02-28T09:14:36;12.43;61.38
65637;DHT22;52327;42.622;23.316;2024-02-28T09:17:01;12.47;62.42
65637;DHT22;52327;42.622;23.316;2024-02-28T09:19:32;12.24;62.20
65637;DHT22;52327;42.622;23.316;2024-02-28T09:22:00;12.45;62.79
65637;DHT22;52327;42.622;23.316;2024-02-28T09:24:26;12.68;62.18
65637;DHT22;52327;42.622;23.316;2024-02-28T09:26:52;12.91;62.08
65637;DHT22;52327;42.622;23.316;2024-02-28T09:29:17;13.44;59.60
65637;DHT22;52327;42.622;23.316;2024-02-28T09:31:43;13.63;60.06
65637;DHT22;52327;42.622;23.316;2024-02-28T09:34:08;13.75;59.72
65637;DHT22;52327;42.622;23.316;2024-02-28T09:36:41;13.89;60.38
65637;DHT22;52327;42.622;23.316;2024-02-28T09:39:08;14.09;59.08
65637;DHT22;52327;42.622;23.316;2024-02-28T09:41:33;13.95;59.18
65637;DHT22;52327;42.622;23.316;2024-02-28T09:44:00;13.99;57.83
65637;DHT22;52327;42.622;23.316;2024-02-28T09:46:27;14.05;57.62
65637;DHT22;52327;42.622;23.316;2024-02-28T09:48:54;13.37;57.32
65637;DHT22;52327;42.622;23.316;2024-02-28T09:51:21;13.42;58.37
65637;DHT22;52327;42.622;23.316;2024-02-28T09:53:46;13.61;57.96
65637;DHT22;52327;42.622;23.316;2024-02-28T09:56:12;13.76;57.93
65637;DHT22;52327;42.622;23.316;2024-02-28T09:58:39;14.12;58.17
65637;DHT22;52327;42.622;23.316;2024-02-28T10:01:07;14.33;58.29
65637;DHT22;52327;42.622;23.316;2024-02-28T10:03:35;14.51;58.14
65637;DHT22;52327;42.622;23.316;2024-02-28T10:06:01;14.59;56.53
65637;DHT22;52327;42.622;23.316;2024-02-28T10:08:27;14.51;55.79
65637;DHT22;52327;42.622;23.316;2024-02-28T10:10:54;14.71;56.37
65637;DHT22;52327;42.622;23.316;2024-02-28T10:13:21;14.89;56.19
65637;DHT22;52327;42.622;23.316;2024-02-28T10:15:48;15.02;56.17
65637;DHT22;52327;42.622;23.316;2024-02-28T10:18:14;15.25;55.64
65637;DHT22;52327;42.622;23.316;2024-02-28T10:20:39;15.47;54.64
65637;DHT22;52327;42.622;23.316;2024-02-28T10:23:05;15.19;55.04
65637;DHT22;52327;42.622;23.316;2024-02-28T10:25:32;15.64;52.93
65637;DHT22;52327;42.622;23.316;2024-02-28T10:28:01;15.87;53.80
65637;DHT22;52327;42.622;23.316;2024-02-28T10:30:27;15.70;53.21
65637;DHT22;52327;42.622;23.316;2024-02-28T10:32:52;15.93;52.67
65637;DHT22;52327;42.622;23.316;2024-02-28T10:35:18;15.94;53.41
65637;DHT22;52327;42.622;23.316;2024-02-28T10:37:54;16.20;52.90
65637;DHT22;52327;42.622;23.316;2024-02-28T10:40:22;16.07;51.33
65637;DHT22;52327;42.622;23.316;2024-02-28T10:42:48;16.13;52.44
65637;DHT22;52327;42.622;23.316;2024-02-28T10:45:13;15.47;52.67
65637;DHT22;52327;42.622;23.316;2024-02-28T10:47:41;15.53;52.76
65637;DHT22;52327;42.622;23.316;2024-02-28T10:50:07;15.71;52.66
65637;DHT22;52327;42.622;23.316;2024-02-28T10:52:33;15.70;52.51
65637;DHT22;52327;42.622;23.316;2024-02-28T10:55:02;15.89;51.93
65637;DHT22;52327;42.622;23.316;2024-02-28T10:57:29;15.94;50.24
65637;DHT22;52327;42.622;23.316;2024-02-28T10:59:55;16.00;50.11
65637;DHT22;52327;42.622;23.316;2024-02-28T11:02:22;16.05;49.75
65637;DHT22;52327;42.622;23.316;2024-02-28T11:04:51;15.83;47.89
65637;DHT22;52327;42.622;23.316;2024-02-28T11:07:21;15.59;49.54
65637;DHT22;52327;42.622;23.316;2024-02-28T11:09:47;15.87;49.32
65637;DHT22;52327;42.622;23.316;2024-02-28T11:12:26;16.18;49.83
65637;DHT22;52327;42.622;23.316;2024-02-28T11:15:02;16.29;47.39
65637;DHT22;52327;42.622;23.316;2024-02-28T11:17:32;15.97;47.35
65637;DHT22;52327;42.622;23.316;2024-02-28T11:19:58;16.20;48.16
65637;DHT22;52327;42.622;23.316;2024-02-28T11:22:24;16.01;46.67
65637;DHT22;52327;42.622;23.316;2024-02-28T11:24:54;15.47;48.58
65637;DHT22;52327;42.622;23.316;2024-02-28T11:27:22;15.80;47.83
65637;DHT22;52327;42.622;23.316;2024-02-28T11:29:51;16.22;47.87
65637;DHT22;52327;42.622;23.316;2024-02-28T11:32:16;16.28;47.77
65637;DHT22;52327;42.622;23.316;2024-02-28T11:34:42;16.42;48.07
65637;DHT22;52327;42.622;23.316;2024-02-28T11:37:09;16.65;46.52
65637;DHT22;52327;42.622;23.316;2024-02-28T11:39:34;16.76;47.14
65637;DHT22;52327;42.622;23.316;2024-02-28T11:42:14;16.90;46.92
65637;DHT22;52327;42.622;23.316;2024-02-28T11:44:40;17.00;46.20
65637;DHT22;52327;42.622;23.316;2024-02-28T11:47:08;16.79;46.88
65637;DHT22;52327;42.622;23.316;2024-02-28T11:49:34;16.86;47.78
65637;DHT22;52327;42.622;23.316;2024-02-28T11:52:00;16.73;46.57
65637;DHT22;52327;42.622;23.316;2024-02-28T11:54:25;16.75;47.20
65637;DHT22;52327;42.622;23.316;2024-02-28T11:56:54;16.29;46.88
65637;DHT22;52327;42.622;23.316;2024-02-28T11:59:19;15.70;48.32
65637;DHT22;52327;42.622;23.316;2024-02-28T12:01:45;15.39;49.33
65637;DHT22;52327;42.622;23.316;2024-02-28T12:04:11;15.29;49.60
65637;DHT22;52327;42.622;23.316;2024-02-28T12:06:37;15.50;49.87
65637;DHT22;52327;42.622;23.316;2024-02-28T12:09:06;15.57;49.15
65637;DHT22;52327;42.622;23.316;2024-02-28T12:11:36;15.40;49.50
65637;DHT22;52327;42.622;23.316;2024-02-28T12:14:07;15.70;49.27
65637;DHT22;52327;42.622;23.316;2024-02-28T12:16:36;16.08;49.01
65637;DHT22;52327;42.622;23.316;2024-02-28T12:19:04;16.32;49.22
65637;DHT22;52327;42.622;23.316;2024-02-28T12:21:29;16.44;47.59
65637;DHT22;52327;42.622;23.316;2024-02-28T12:23:59;16.26;47.41
65637;DHT22;52327;42.622;23.316;2024-02-28T12:26:27;16.10;48.00
65637;DHT22;52327;42.622;23.316;2024-02-28T12:28:53;16.10;48.59
65637;DHT22;52327;42.622;23.316;2024-02-28T12:31:18;16.18;48.18
65637;DHT22;52327;42.622;23.316;2024-02-28T12:33:44;16.28;49.00
65637;DHT22;52327;42.622;23.316;2024-02-28T12:36:09;16.47;48.74
65637;DHT22;52327;42.622;23.316;2024-02-28T12:38:37;16.35;49.94
65637;DHT22;52327;42.622;23.316;2024-02-28T12:41:03;16.48;50.60
65637;DHT22;52327;42.622;23.316;2024-02-28T12:43:29;16.47;49.88
65637;DHT22;52327;42.622;23.316;2024-02-28T12:45:55;16.72;49.76
65637;DHT22;52327;42.622;23.316;2024-02-28T12:48:20;16.87;49.88
65637;DHT22;52327;42.622;23.316;2024-02-28T12:50:46;16.89;50.69
65637;DHT22;52327;42.622;23.316;2024-02-28T12:53:12;16.99;51.15
65637;DHT22;52327;42.622;23.316;2024-02-28T12:55:37;17.03;50.19
65637;DHT22;52327;42.622;23.316;2024-02-28T12:58:03;17.02;50.60
65637;DHT22;52327;42.622;23.316;2024-02-28T13:00:31;17.03;51.45
65637;DHT22;52327;42.622;23.316;2024-02-28T13:02:57;17.06;50.70
65637;DHT22;52327;42.622;23.316;2024-02-28T13:05:22;16.97;51.69
65637;DHT22;52327;42.622;23.316;2024-02-28T13:07:47;16.97;51.66
65637;DHT22;52327;42.622;23.316;2024-02-28T13:10:13;17.03;51.93
65637;DHT22;52327;42.622;23.316;2024-02-28T13:12:38;17.02;52.58
65637;DHT22;52327;42.622;23.316;2024-02-28T13:15:05;17.09;51.38
65637;DHT22;52327;42.622;23.316;2024-02-28T13:17:30;17.13;51.37
65637;DHT22;52327;42.622;23.316;2024-02-28T13:19:56;17.15;51.78
65637;DHT22;52327;42.622;23.316;2024-02-28T13:22:21;17.13;51.57
65637;DHT22;52327;42.622;23.316;2024-02-28T13:24:47;17.17;50.61
65637;DHT22;52327;42.622;23.316;2024-02-28T13:27:12;17.13;52.12
65637;DHT22;52327;42.622;23.316;2024-02-28T13:29:37;17.15;51.40
65637;DHT22;52327;42.622;23.316;2024-02-28T13:32:03;17.09;51.70
65637;DHT22;52327;42.622;23.316;2024-02-28T13:34:28;16.97;51.78
65637;DHT22;52327;42.622;23.316;2024-02-28T13:36:55;17.02;51.23
65637;DHT22;52327;42.622;23.316;2024-02-28T13:39:20;16.85;51.23
65637;DHT22;52327;42.622;23.316;2024-02-28T13:41:49;16.77;51.81
65637;DHT22;52327;42.622;23.316;2024-02-28T13:44:17;16.92;51.08
65637;DHT22;52327;42.622;23.316;2024-02-28T13:46:42;16.89;52.02
65637;DHT22;52327;42.622;23.316;2024-02-28T13:49:08;16.77;52.67
65637;DHT22;52327;42.622;23.316;2024-02-28T13:51:33;16.76;52.92
65637;DHT22;52327;42.622;23.316;2024-02-28T13:53:58;16.62;53.26
65637;DHT22;52327;42.622;23.316;2024-02-28T13:56:24;16.59;53.45
65637;DHT22;52327;42.622;23.316;2024-02-28T13:58:49;16.52;54.21
65637;DHT22;52327;42.622;23.316;2024-02-28T14:01:15;16.49;54.83
65637;DHT22;52327;42.622;23.316;2024-02-28T14:03:40;16.51;53.90
65637;DHT22;52327;42.622;23.316;2024-02-28T14:06:06;16.41;53.53
65637;DHT22;52327;42.622;23.316;2024-02-28T14:08:31;16.34;53.54
65637;DHT22;52327;42.622;23.316;2024-02-28T14:10:57;16.21;55.64
65637;DHT22;52327;42.622;23.316;2024-02-28T14:13:23;16.05;55.17
65637;DHT22;52327;42.622;23.316;2024-02-28T14:15:49;16.07;54.41
65637;DHT22;52327;42.622;23.316;2024-02-28T14:18:16;15.71;56.79
65637;DHT22;52327;42.622;23.316;2024-02-28T14:20:43;15.59;57.85
65637;DHT22;52327;42.622;23.316;2024-02-28T14:23:08;15.38;58.18
65637;DHT22;52327;42.622;23.316;2024-02-28T14:25:34;15.33;59.17
65637;DHT22;52327;42.622;23.316;2024-02-28T14:27:59;15.32;59.40
65637;DHT22;52327;42.622;23.316;2024-02-28T14:30:24;15.23;59.76
65637;DHT22;52327;42.622;23.316;2024-02-28T14:32:50;15.21;59.63
65637;DHT22;52327;42.622;23.316;2024-02-28T14:35:15;15.21;60.25
65637;DHT22;52327;42.622;23.316;2024-02-28T14:37:41;15.21;59.06
65637;DHT22;52327;42.622;23.316;2024-02-28T14:40:08;15.21;59.41
65637;DHT22;52327;42.622;23.316;2024-02-28T14:42:40;15.23;60.23
65637;DHT22;52327;42.622;23.316;2024-02-28T14:45:09;15.19;60.69
65637;DHT22;52327;42.622;23.316;2024-02-28T14:47:40;15.18;60.55
65637;DHT22;52327;42.622;23.316;2024-02-28T14:50:06;15.26;60.13
65637;DHT22;52327;42.622;23.316;2024-02-28T14:52:36;15.43;59.33
65637;DHT22;52327;42.622;23.316;2024-02-28T14:55:02;15.43;60.17
65637;DHT22;52327;42.622;23.316;2024-02-28T14:57:29;15.46;60.02
65637;DHT22;52327;42.622;23.316;2024-02-28T14:59:56;15.39;60.31
65637;DHT22;52327;42.622;23.316;2024-02-28T15:02:22;15.33;59.91
65637;DHT22;52327;42.622;23.316;2024-02-28T15:04:47;15.32;56.77
65637;DHT22;52327;42.622;23.316;2024-02-28T15:07:15;15.44;56.98
65637;DHT22;52327;42.622;23.316;2024-02-28T15:09:40;15.47;56.88
65637;DHT22;52327;42.622;23.316;2024-02-28T15:12:06;15.53;58.03
65637;DHT22;52327;42.622;23.316;2024-02-28T15:14:32;15.40;59.44
65637;DHT22;52327;42.622;23.316;2024-02-28T15:16:58;15.40;59.17